sensor_id;sensor_type;location;lat;lon;timestamp;P1;durP1;ratioP1;P2;durP2;ratioP2
38725;SDS011;24474;48.906;8.808;2023-08-01T00:02:25;5.53;;;2.88;;
38725;SDS011;24474;48.906;8.808;2023-08-01T00:04:51;6.10;;;2.88;;
38725;SDS011;24474;48.906;8.808;2023-08-01T00:07:17;6.32;;;2.92;;
38725;SDS011;24474;48.906;8.808;2023-08-01T00:09:42;5.78;;;2.70;;
38725;SDS011;24474;48.906;8.808;2023-08-01T00:12:08;6.93;;;2.70;;
38725;SDS011;24474;48.906;8.808;2023-08-01T00:14:33;5.38;;;2.90;;
38725;SDS011;24474;48.906;8.808;2023-08-01T00:17:00;5.97;;;3.08;;
38725;SDS011;24474;48.906;8.808;2023-08-01T00:19:27;6.13;;;3.08;;
38725;SDS011;24474;48.906;8.808;2023-08-01T00:21:52;5.40;;;3.03;;
38725;SDS011;24474;48.906;8.808;2023-08-01T00:24:18;7.05;;;3.20;;
38725;SDS011;24474;48.906;8.808;2023-08-01T00:26:44;5.57;;;2.83;;
38725;SDS011;24474;48.906;8.808;2023-08-01T00:29:09;6.57;;;2.97;;
38725;SDS011;24474;48.906;8.808;2023-08-01T00:31:35;6.47;;;2.90;;
38725;SDS011;24474;48.906;8.808;2023-08-01T00:34:00;5.05;;;2.85;;
38725;SDS011;24474;48.906;8.808;2023-08-01T00:36:26;5.35;;;3.35;;
38725;SDS011;24474;48.906;8.808;2023-08-01T00:38:52;5.15;;;3.05;;
38725;SDS011;24474;48.906;8.808;2023-08-01T00:41:17;7.68;;;2.90;;
38725;SDS011;24474;48.906;8.808;2023-08-01T00:43:43;4.57;;;3.00;;
38725;SDS011;24474;48.906;8.808;2023-08-01T00:46:08;4.57;;;2.75;;
38725;SDS011;24474;48.906;8.808;2023-08-01T00:48:35;7.18;;;3.20;;
38725;SDS011;24474;48.906;8.808;2023-08-01T00:51:03;6.93;;;2.97;;
38725;SDS011;24474;48.906;8.808;2023-08-01T00:53:30;6.75;;;2.88;;
38725;SDS011;24474;48.906;8.808;2023-08-01T00:55:56;6.65;;;2.70;;
38725;SDS011;24474;48.906;8.808;2023-08-01T00:58:23;6.07;;;3.10;;
38725;SDS011;24474;48.906;8.808;2023-08-01T01:00:48;5.88;;;3.20;;
38725;SDS011;24474;48.906;8.808;2023-08-01T01:03:14;4.88;;;2.95;;
38725;SDS011;24474;48.906;8.808;2023-08-01T01:05:43;6.38;;;3.13;;
38725;SDS011;24474;48.906;8.808;2023-08-01T01:08:25;6.10;;;2.90;;
38725;SDS011;24474;48.906;8.808;2023-08-01T01:10:51;3.97;;;2.67;;
38725;SDS011;24474;48.906;8.808;2023-08-01T01:13:17;7.63;;;3.20;;
38725;SDS011;24474;48.906;8.808;2023-08-01T01:15:42;6.70;;;3.00;;
38725;SDS011;24474;48.906;8.808;2023-08-01T01:18:08;7.93;;;2.92;;
38725;SDS011;24474;48.906;8.808;2023-08-01T01:20:34;6.00;;;3.17;;
38725;SDS011;24474;48.906;8.808;2023-08-01T01:23:00;6.47;;;3.50;;
38725;SDS011;24474;48.906;8.808;2023-08-01T01:25:28;5.68;;;3.38;;
38725;SDS011;24474;48.906;8.808;2023-08-01T01:27:55;6.40;;;3.13;;
38725;SDS011;24474;48.906;8.808;2023-08-01T01:30:21;6.30;;;3.60;;
38725;SDS011;24474;48.906;8.808;2023-08-01T01:32:47;6.00;;;3.28;;
38725;SDS011;24474;48.906;8.808;2023-08-01T01:35:14;5.22;;;3.25;;
38725;SDS011;24474;48.906;8.808;2023-08-01T01:37:40;6.40;;;3.58;;
38725;SDS011;24474;48.906;8.808;2023-08-01T01:40:05;6.82;;;3.40;;
38725;SDS011;24474;48.906;8.808;2023-08-01T01:42:32;5.85;;;3.05;;
38725;SDS011;24474;48.906;8.808;2023-08-01T01:44:57;7.28;;;3.42;;
38725;SDS011;24474;48.906;8.808;2023-08-01T01:47:23;7.40;;;3.40;;
38725;SDS011;24474;48.906;8.808;2023-08-01T01:49:48;5.45;;;3.33;;
38725;SDS011;24474;48.906;8.808;2023-08-01T01:52:14;7.45;;;3.55;;
38725;SDS011;24474;48.906;8.808;2023-08-01T01:54:40;6.03;;;3.30;;
38725;SDS011;24474;48.906;8.808;2023-08-01T01:57:05;5.22;;;3.00;;
38725;SDS011;24474;48.906;8.808;2023-08-01T01:59:31;8.02;;;3.47;;
38725;SDS011;24474;48.906;8.808;2023-08-01T02:01:56;5.60;;;3.05;;
38725;SDS011;24474;48.906;8.808;2023-08-01T02:04:22;6.35;;;3.10;;
38725;SDS011;24474;48.906;8.808;2023-08-01T02:06:48;6.18;;;3.00;;
38725;SDS011;24474;48.906;8.808;2023-08-01T02:09:13;6.75;;;3.33;;
38725;SDS011;24474;48.906;8.808;2023-08-01T02:11:39;6.78;;;3.30;;
38725;SDS011;24474;48.906;8.808;2023-08-01T02:14:04;5.90;;;3.17;;
38725;SDS011;24474;48.906;8.808;2023-08-01T02:16:30;7.38;;;3.35;;
38725;SDS011;24474;48.906;8.808;2023-08-01T02:18:56;7.65;;;3.22;;
38725;SDS011;24474;48.906;8.808;2023-08-01T02:21:22;6.47;;;3.40;;
38725;SDS011;24474;48.906;8.808;2023-08-01T02:23:47;6.13;;;3.00;;
38725;SDS011;24474;48.906;8.808;2023-08-01T02:26:13;6.95;;;3.55;;
38725;SDS011;24474;48.906;8.808;2023-08-01T02:28:39;8.52;;;3.90;;
38725;SDS011;24474;48.906;8.808;2023-08-01T02:31:05;6.38;;;3.30;;
38725;SDS011;24474;48.906;8.808;2023-08-01T02:33:30;6.75;;;3.47;;
38725;SDS011;24474;48.906;8.808;2023-08-01T02:35:56;6.70;;;3.40;;
38725;SDS011;24474;48.906;8.808;2023-08-01T02:38:22;6.10;;;3.60;;
38725;SDS011;24474;48.906;8.808;2023-08-01T02:40:47;6.55;;;3.35;;
38725;SDS011;24474;48.906;8.808;2023-08-01T02:43:13;7.20;;;3.53;;
38725;SDS011;24474;48.906;8.808;2023-08-01T02:45:38;4.20;;;3.00;;
38725;SDS011;24474;48.906;8.808;2023-08-01T02:48:06;7.55;;;3.50;;
38725;SDS011;24474;48.906;8.808;2023-08-01T02:50:32;4.88;;;3.05;;
38725;SDS011;24474;48.906;8.808;2023-08-01T02:52:57;5.88;;;3.45;;
38725;SDS011;24474;48.906;8.808;2023-08-01T02:55:23;7.07;;;3.60;;
38725;SDS011;24474;48.906;8.808;2023-08-01T02:57:48;7.72;;;3.85;;
38725;SDS011;24474;48.906;8.808;2023-08-01T03:00:14;6.95;;;3.00;;
38725;SDS011;24474;48.906;8.808;2023-08-01T03:02:42;6.28;;;3.00;;
38725;SDS011;24474;48.906;8.808;2023-08-01T03:05:08;6.20;;;3.22;;
38725;SDS011;24474;48.906;8.808;2023-08-01T03:07:35;4.80;;;3.00;;
38725;SDS011;24474;48.906;8.808;2023-08-01T03:10:00;7.45;;;3.33;;
38725;SDS011;24474;48.906;8.808;2023-08-01T03:12:27;7.57;;;3.45;;
38725;SDS011;24474;48.906;8.808;2023-08-01T03:14:52;5.72;;;2.75;;
38725;SDS011;24474;48.906;8.808;2023-08-01T03:17:18;8.63;;;3.08;;
38725;SDS011;24474;48.906;8.808;2023-08-01T03:19:44;6.60;;;2.67;;
38725;SDS011;24474;48.906;8.808;2023-08-01T03:22:10;5.22;;;2.65;;
38725;SDS011;24474;48.906;8.808;2023-08-01T03:24:35;6.13;;;3.13;;
38725;SDS011;24474;48.906;8.808;2023-08-01T03:27:01;6.00;;;2.88;;
38725;SDS011;24474;48.906;8.808;2023-08-01T03:29:27;5.05;;;2.95;;
38725;SDS011;24474;48.906;8.808;2023-08-01T03:31:53;5.65;;;3.17;;
38725;SDS011;24474;48.906;8.808;2023-08-01T03:34:18;6.45;;;3.28;;
38725;SDS011;24474;48.906;8.808;2023-08-01T03:36:44;7.60;;;3.40;;
38725;SDS011;24474;48.906;8.808;2023-08-01T03:39:10;6.35;;;2.72;;
38725;SDS011;24474;48.906;8.808;2023-08-01T03:41:35;4.80;;;2.70;;
38725;SDS011;24474;48.906;8.808;2023-08-01T03:44:02;6.82;;;2.75;;
38725;SDS011;24474;48.906;8.808;2023-08-01T03:46:28;5.78;;;2.47;;
38725;SDS011;24474;48.906;8.808;2023-08-01T03:48:54;5.50;;;2.75;;
38725;SDS011;24474;48.906;8.808;2023-08-01T03:51:20;6.68;;;3.17;;
38725;SDS011;24474;48.906;8.808;2023-08-01T03:53:46;5.63;;;2.83;;
38725;SDS011;24474;48.906;8.808;2023-08-01T03:56:12;7.15;;;3.05;;
38725;SDS011;24474;48.906;8.808;2023-08-01T03:58:38;4.97;;;2.78;;
38725;SDS011;24474;48.906;8.808;2023-08-01T04:01:03;7.20;;;2.78;;
38725;SDS011;24474;48.906;8.808;2023-08-01T04:03:31;6.10;;;2.58;;
38725;SDS011;24474;48.906;8.808;2023-08-01T04:05:57;4.45;;;1.90;;
38725;SDS011;24474;48.906;8.808;2023-08-01T04:08:23;4.82;;;2.45;;
38725;SDS011;24474;48.906;8.808;2023-08-01T04:10:48;5.05;;;2.45;;
38725;SDS011;24474;48.906;8.808;2023-08-01T04:13:15;5.60;;;2.35;;
38725;SDS011;24474;48.906;8.808;2023-08-01T04:15:40;3.63;;;2.30;;
38725;SDS011;24474;48.906;8.808;2023-08-01T04:18:06;4.28;;;2.38;;
38725;SDS011;24474;48.906;8.808;2023-08-01T04:20:32;4.13;;;2.03;;
38725;SDS011;24474;48.906;8.808;2023-08-01T04:22:57;5.78;;;2.22;;
38725;SDS011;24474;48.906;8.808;2023-08-01T04:25:23;3.17;;;1.90;;
38725;SDS011;24474;48.906;8.808;2023-08-01T04:27:51;5.75;;;2.08;;
38725;SDS011;24474;48.906;8.808;2023-08-01T04:30:17;4.57;;;2.17;;
38725;SDS011;24474;48.906;8.808;2023-08-01T04:32:43;7.18;;;2.30;;
38725;SDS011;24474;48.906;8.808;2023-08-01T04:35:08;4.93;;;2.08;;
38725;SDS011;24474;48.906;8.808;2023-08-01T04:37:34;4.45;;;2.33;;
38725;SDS011;24474;48.906;8.808;2023-08-01T04:40:00;4.57;;;2.13;;
38725;SDS011;24474;48.906;8.808;2023-08-01T04:42:25;5.97;;;2.10;;
38725;SDS011;24474;48.906;8.808;2023-08-01T04:44:51;3.55;;;2.03;;
38725;SDS011;24474;48.906;8.808;2023-08-01T04:47:17;4.63;;;1.95;;
38725;SDS011;24474;48.906;8.808;2023-08-01T04:49:44;3.50;;;2.00;;
38725;SDS011;24474;48.906;8.808;2023-08-01T04:52:09;3.80;;;2.38;;
38725;SDS011;24474;48.906;8.808;2023-08-01T04:54:35;5.45;;;2.10;;
38725;SDS011;24474;48.906;8.808;2023-08-01T04:57:00;3.08;;;2.15;;
38725;SDS011;24474;48.906;8.808;2023-08-01T04:59:26;4.03;;;2.42;;
38725;SDS011;24474;48.906;8.808;2023-08-01T05:01:52;4.32;;;2.20;;
38725;SDS011;24474;48.906;8.808;2023-08-01T05:04:17;3.85;;;2.10;;
38725;SDS011;24474;48.906;8.808;2023-08-01T05:06:43;4.85;;;2.28;;
38725;SDS011;24474;48.906;8.808;2023-08-01T05:09:08;5.43;;;2.35;;
38725;SDS011;24474;48.906;8.808;2023-08-01T05:11:34;7.20;;;2.60;;
38725;SDS011;24474;48.906;8.808;2023-08-01T05:14:00;5.35;;;2.55;;
38725;SDS011;24474;48.906;8.808;2023-08-01T05:16:25;4.32;;;2.25;;
38725;SDS011;24474;48.906;8.808;2023-08-01T05:18:51;3.90;;;2.20;;
38725;SDS011;24474;48.906;8.808;2023-08-01T05:21:17;3.35;;;2.20;;
38725;SDS011;24474;48.906;8.808;2023-08-01T05:23:42;5.63;;;2.47;;
38725;SDS011;24474;48.906;8.808;2023-08-01T05:26:08;5.28;;;2.75;;
38725;SDS011;24474;48.906;8.808;2023-08-01T05:28:34;4.38;;;2.70;;
38725;SDS011;24474;48.906;8.808;2023-08-01T05:30:59;4.03;;;2.33;;
38725;SDS011;24474;48.906;8.808;2023-08-01T05:33:25;4.90;;;2.65;;
38725;SDS011;24474;48.906;8.808;2023-08-01T05:35:50;5.45;;;2.63;;
38725;SDS011;24474;48.906;8.808;2023-08-01T05:38:16;5.72;;;2.30;;
38725;SDS011;24474;48.906;8.808;2023-08-01T05:40:42;5.20;;;2.17;;
38725;SDS011;24474;48.906;8.808;2023-08-01T05:43:07;4.68;;;2.53;;
38725;SDS011;24474;48.906;8.808;2023-08-01T05:45:35;5.30;;;2.90;;
38725;SDS011;24474;48.906;8.808;2023-08-01T05:48:02;5.30;;;2.97;;
38725;SDS011;24474;48.906;8.808;2023-08-01T05:50:28;5.60;;;2.60;;
38725;SDS011;24474;48.906;8.808;2023-08-01T05:52:54;7.18;;;2.60;;
38725;SDS011;24474;48.906;8.808;2023-08-01T05:55:19;3.85;;;2.55;;
38725;SDS011;24474;48.906;8.808;2023-08-01T05:57:46;6.18;;;2.75;;
38725;SDS011;24474;48.906;8.808;2023-08-01T06:00:11;5.75;;;2.70;;
38725;SDS011;24474;48.906;8.808;2023-08-01T06:02:37;4.20;;;2.40;;
38725;SDS011;24474;48.906;8.808;2023-08-01T06:05:03;4.30;;;2.08;;
38725;SDS011;24474;48.906;8.808;2023-08-01T06:07:29;4.47;;;2.75;;
38725;SDS011;24474;48.906;8.808;2023-08-01T06:09:55;6.20;;;2.80;;
38725;SDS011;24474;48.906;8.808;2023-08-01T06:12:21;6.38;;;3.13;;
38725;SDS011;24474;48.906;8.808;2023-08-01T06:14:46;5.03;;;2.95;;
38725;SDS011;24474;48.906;8.808;2023-08-01T06:17:14;4.82;;;2.83;;
38725;SDS011;24474;48.906;8.808;2023-08-01T06:19:41;4.97;;;2.88;;
38725;SDS011;24474;48.906;8.808;2023-08-01T06:22:06;6.07;;;3.10;;
38725;SDS011;24474;48.906;8.808;2023-08-01T06:24:33;5.15;;;3.00;;
38725;SDS011;24474;48.906;8.808;2023-08-01T06:26:59;6.22;;;3.25;;
38725;SDS011;24474;48.906;8.808;2023-08-01T06:29:24;5.43;;;3.28;;
38725;SDS011;24474;48.906;8.808;2023-08-01T06:31:50;7.78;;;3.53;;
38725;SDS011;24474;48.906;8.808;2023-08-01T06:34:16;7.65;;;3.17;;
38725;SDS011;24474;48.906;8.808;2023-08-01T06:36:41;5.45;;;3.53;;
38725;SDS011;24474;48.906;8.808;2023-08-01T06:39:07;8.10;;;3.67;;
38725;SDS011;24474;48.906;8.808;2023-08-01T06:41:34;6.53;;;3.40;;
38725;SDS011;24474;48.906;8.808;2023-08-01T06:44:01;8.13;;;3.20;;
38725;SDS011;24474;48.906;8.808;2023-08-01T06:46:27;6.68;;;3.50;;
38725;SDS011;24474;48.906;8.808;2023-08-01T06:48:55;6.15;;;3.22;;
38725;SDS011;24474;48.906;8.808;2023-08-01T06:51:21;8.65;;;3.40;;
38725;SDS011;24474;48.906;8.808;2023-08-01T06:53:47;7.22;;;3.50;;
38725;SDS011;24474;48.906;8.808;2023-08-01T06:56:14;6.00;;;3.53;;
38725;SDS011;24474;48.906;8.808;2023-08-01T06:58:41;6.25;;;3.03;;
38725;SDS011;24474;48.906;8.808;2023-08-01T07:01:06;5.57;;;3.28;;
38725;SDS011;24474;48.906;8.808;2023-08-01T07:03:32;6.65;;;3.35;;
38725;SDS011;24474;48.906;8.808;2023-08-01T07:05:59;5.43;;;2.88;;
38725;SDS011;24474;48.906;8.808;2023-08-01T07:08:25;7.00;;;2.75;;
38725;SDS011;24474;48.906;8.808;2023-08-01T07:10:50;9.13;;;3.03;;
38725;SDS011;24474;48.906;8.808;2023-08-01T07:13:17;5.93;;;3.28;;
38725;SDS011;24474;48.906;8.808;2023-08-01T07:15:46;7.38;;;3.20;;
38725;SDS011;24474;48.906;8.808;2023-08-01T07:18:13;6.28;;;3.38;;
38725;SDS011;24474;48.906;8.808;2023-08-01T07:20:41;6.07;;;3.25;;
38725;SDS011;24474;48.906;8.808;2023-08-01T07:23:07;4.57;;;3.00;;
38725;SDS011;24474;48.906;8.808;2023-08-01T07:25:32;8.00;;;3.70;;
38725;SDS011;24474;48.906;8.808;2023-08-01T07:27:58;5.25;;;3.28;;
38725;SDS011;24474;48.906;8.808;2023-08-01T07:30:23;4.32;;;3.10;;
38725;SDS011;24474;48.906;8.808;2023-08-01T07:32:49;6.57;;;3.22;;
38725;SDS011;24474;48.906;8.808;2023-08-01T07:35:15;5.13;;;3.17;;
38725;SDS011;24474;48.906;8.808;2023-08-01T07:37:40;6.55;;;3.50;;
38725;SDS011;24474;48.906;8.808;2023-08-01T07:40:06;5.40;;;3.22;;
38725;SDS011;24474;48.906;8.808;2023-08-01T07:42:32;4.45;;;3.10;;
38725;SDS011;24474;48.906;8.808;2023-08-01T07:44:59;6.10;;;3.10;;
38725;SDS011;24474;48.906;8.808;2023-08-01T07:47:26;5.38;;;2.90;;
38725;SDS011;24474;48.906;8.808;2023-08-01T07:49:53;5.07;;;3.10;;
38725;SDS011;24474;48.906;8.808;2023-08-01T07:52:20;4.35;;;2.78;;
38725;SDS011;24474;48.906;8.808;2023-08-01T07:54:45;5.20;;;2.67;;
38725;SDS011;24474;48.906;8.808;2023-08-01T07:57:12;4.95;;;2.83;;
38725;SDS011;24474;48.906;8.808;2023-08-01T07:59:39;4.35;;;2.55;;
38725;SDS011;24474;48.906;8.808;2023-08-01T08:02:05;4.68;;;2.58;;
38725;SDS011;24474;48.906;8.808;2023-08-01T08:04:30;7.38;;;2.50;;
38725;SDS011;24474;48.906;8.808;2023-08-01T08:06:57;6.05;;;2.50;;
38725;SDS011;24474;48.906;8.808;2023-08-01T08:09:25;4.47;;;2.53;;
38725;SDS011;24474;48.906;8.808;2023-08-01T08:11:53;4.57;;;2.25;;
38725;SDS011;24474;48.906;8.808;2023-08-01T08:14:20;3.83;;;2.05;;
38725;SDS011;24474;48.906;8.808;2023-08-01T08:16:47;3.22;;;2.35;;
38725;SDS011;24474;48.906;8.808;2023-08-01T08:19:14;2.80;;;2.00;;
38725;SDS011;24474;48.906;8.808;2023-08-01T08:21:40;4.05;;;2.30;;
38725;SDS011;24474;48.906;8.808;2023-08-01T08:24:07;3.03;;;1.77;;
38725;SDS011;24474;48.906;8.808;2023-08-01T08:26:33;4.13;;;2.00;;
38725;SDS011;24474;48.906;8.808;2023-08-01T08:29:02;3.30;;;1.77;;
38725;SDS011;24474;48.906;8.808;2023-08-01T08:31:31;3.67;;;1.90;;
38725;SDS011;24474;48.906;8.808;2023-08-01T08:33:58;2.90;;;1.85;;
38725;SDS011;24474;48.906;8.808;2023-08-01T08:36:25;1.73;;;1.40;;
38725;SDS011;24474;48.906;8.808;2023-08-01T08:38:51;2.78;;;1.40;;
38725;SDS011;24474;48.906;8.808;2023-08-01T08:41:22;2.40;;;1.40;;
38725;SDS011;24474;48.906;8.808;2023-08-01T08:43:52;2.83;;;1.60;;
38725;SDS011;24474;48.906;8.808;2023-08-01T08:46:22;2.28;;;1.30;;
38725;SDS011;24474;48.906;8.808;2023-08-01T08:48:53;2.00;;;1.30;;
38725;SDS011;24474;48.906;8.808;2023-08-01T08:51:21;1.58;;;1.00;;
38725;SDS011;24474;48.906;8.808;2023-08-01T08:53:48;1.50;;;0.93;;
38725;SDS011;24474;48.906;8.808;2023-08-01T08:56:17;1.40;;;0.47;;
38725;SDS011;24474;48.906;8.808;2023-08-01T08:58:43;0.75;;;0.40;;
38725;SDS011;24474;48.906;8.808;2023-08-01T09:01:11;0.70;;;0.50;;
38725;SDS011;24474;48.906;8.808;2023-08-01T09:03:38;0.38;;;0.35;;
38725;SDS011;24474;48.906;8.808;2023-08-01T09:06:06;0.65;;;0.35;;
38725;SDS011;24474;48.906;8.808;2023-08-01T09:08:35;0.60;;;0.30;;
38725;SDS011;24474;48.906;8.808;2023-08-01T09:11:02;1.95;;;0.40;;
38725;SDS011;24474;48.906;8.808;2023-08-01T09:13:29;0.50;;;0.20;;
38725;SDS011;24474;48.906;8.808;2023-08-01T09:15:54;0.50;;;0.30;;
38725;SDS011;24474;48.906;8.808;2023-08-01T09:18:21;0.50;;;0.25;;
38725;SDS011;24474;48.906;8.808;2023-08-01T09:20:48;0.40;;;0.20;;
38725;SDS011;24474;48.906;8.808;2023-08-01T09:23:15;0.47;;;0.47;;
38725;SDS011;24474;48.906;8.808;2023-08-01T09:25:42;0.60;;;0.30;;
38725;SDS011;24474;48.906;8.808;2023-08-01T09:28:18;0.40;;;0.20;;
38725;SDS011;24474;48.906;8.808;2023-08-01T09:30:52;0.68;;;0.20;;
38725;SDS011;24474;48.906;8.808;2023-08-01T09:33:20;0.30;;;0.30;;
38725;SDS011;24474;48.906;8.808;2023-08-01T09:35:48;1.23;;;0.30;;
38725;SDS011;24474;48.906;8.808;2023-08-01T09:38:14;0.73;;;0.30;;
38725;SDS011;24474;48.906;8.808;2023-08-01T09:40:41;0.85;;;0.50;;
38725;SDS011;24474;48.906;8.808;2023-08-01T09:43:08;0.50;;;0.40;;
38725;SDS011;24474;48.906;8.808;2023-08-01T09:45:34;0.90;;;0.40;;
38725;SDS011;24474;48.906;8.808;2023-08-01T09:48:01;0.68;;;0.45;;
38725;SDS011;24474;48.906;8.808;2023-08-01T09:50:27;0.68;;;0.60;;
38725;SDS011;24474;48.906;8.808;2023-08-01T09:52:52;1.23;;;0.63;;
38725;SDS011;24474;48.906;8.808;2023-08-01T09:55:25;0.60;;;0.50;;
38725;SDS011;24474;48.906;8.808;2023-08-01T09:57:56;0.90;;;0.60;;
38725;SDS011;24474;48.906;8.808;2023-08-01T10:00:25;1.02;;;0.70;;
38725;SDS011;24474;48.906;8.808;2023-08-01T10:02:58;0.73;;;0.57;;
38725;SDS011;24474;48.906;8.808;2023-08-01T10:05:29;1.25;;;0.60;;
38725;SDS011;24474;48.906;8.808;2023-08-01T10:07:58;0.82;;;0.60;;
38725;SDS011;24474;48.906;8.808;2023-08-01T10:10:25;2.90;;;0.70;;
38725;SDS011;24474;48.906;8.808;2023-08-01T10:12:52;1.08;;;0.60;;
38725;SDS011;24474;48.906;8.808;2023-08-01T10:15:21;0.90;;;0.80;;
38725;SDS011;24474;48.906;8.808;2023-08-01T10:17:48;1.38;;;0.70;;
38725;SDS011;24474;48.906;8.808;2023-08-01T10:20:13;2.28;;;0.75;;
38725;SDS011;24474;48.906;8.808;2023-08-01T10:22:40;1.15;;;0.70;;
38725;SDS011;24474;48.906;8.808;2023-08-01T10:25:07;3.03;;;0.93;;
38725;SDS011;24474;48.906;8.808;2023-08-01T10:27:35;1.10;;;0.70;;
38725;SDS011;24474;48.906;8.808;2023-08-01T10:30:02;2.08;;;0.82;;
38725;SDS011;24474;48.906;8.808;2023-08-01T10:32:30;1.40;;;0.80;;
38725;SDS011;24474;48.906;8.808;2023-08-01T10:35:01;0.98;;;0.90;;
38725;SDS011;24474;48.906;8.808;2023-08-01T10:37:42;5.55;;;1.20;;
38725;SDS011;24474;48.906;8.808;2023-08-01T10:40:08;1.52;;;1.00;;
38725;SDS011;24474;48.906;8.808;2023-08-01T10:42:38;2.58;;;1.00;;
38725;SDS011;24474;48.906;8.808;2023-08-01T10:45:20;1.63;;;0.80;;
38725;SDS011;24474;48.906;8.808;2023-08-01T10:47:48;3.22;;;1.00;;
38725;SDS011;24474;48.906;8.808;2023-08-01T10:50:14;2.13;;;0.80;;
38725;SDS011;24474;48.906;8.808;2023-08-01T10:52:41;2.25;;;1.10;;
38725;SDS011;24474;48.906;8.808;2023-08-01T10:55:07;1.17;;;0.82;;
38725;SDS011;24474;48.906;8.808;2023-08-01T10:57:38;1.92;;;0.88;;
38725;SDS011;24474;48.906;8.808;2023-08-01T11:00:11;1.17;;;0.85;;
38725;SDS011;24474;48.906;8.808;2023-08-01T11:02:42;1.70;;;0.90;;
38725;SDS011;24474;48.906;8.808;2023-08-01T11:05:14;4.47;;;1.05;;
38725;SDS011;24474;48.906;8.808;2023-08-01T11:07:40;1.48;;;0.90;;
38725;SDS011;24474;48.906;8.808;2023-08-01T11:12:33;2.22;;;0.85;;
38725;SDS011;24474;48.906;8.808;2023-08-01T11:15:00;2.55;;;0.90;;
38725;SDS011;24474;48.906;8.808;2023-08-01T11:17:26;1.15;;;0.70;;
38725;SDS011;24474;48.906;8.808;2023-08-01T11:19:59;2.15;;;0.98;;
38725;SDS011;24474;48.906;8.808;2023-08-01T11:22:29;3.13;;;0.88;;
38725;SDS011;24474;48.906;8.808;2023-08-01T11:24:55;2.35;;;1.00;;
38725;SDS011;24474;48.906;8.808;2023-08-01T11:27:21;1.60;;;0.85;;
38725;SDS011;24474;48.906;8.808;2023-08-01T11:29:46;2.17;;;0.98;;
38725;SDS011;24474;48.906;8.808;2023-08-01T11:32:12;1.67;;;0.95;;
38725;SDS011;24474;48.906;8.808;2023-08-01T11:34:41;3.13;;;1.00;;
38725;SDS011;24474;48.906;8.808;2023-08-01T11:37:11;3.00;;;1.10;;
38725;SDS011;24474;48.906;8.808;2023-08-01T11:39:38;2.03;;;1.20;;
38725;SDS011;24474;48.906;8.808;2023-08-01T11:42:04;1.92;;;1.00;;
38725;SDS011;24474;48.906;8.808;2023-08-01T11:44:30;3.75;;;1.20;;
38725;SDS011;24474;48.906;8.808;2023-08-01T11:46:56;1.20;;;0.98;;
38725;SDS011;24474;48.906;8.808;2023-08-01T11:49:22;3.42;;;1.20;;
38725;SDS011;24474;48.906;8.808;2023-08-01T11:51:49;1.70;;;0.80;;
38725;SDS011;24474;48.906;8.808;2023-08-01T11:54:15;3.00;;;1.00;;
38725;SDS011;24474;48.906;8.808;2023-08-01T11:56:42;2.80;;;1.10;;
38725;SDS011;24474;48.906;8.808;2023-08-01T11:59:12;1.50;;;1.00;;
38725;SDS011;24474;48.906;8.808;2023-08-01T12:01:45;2.47;;;1.08;;
38725;SDS011;24474;48.906;8.808;2023-08-01T12:04:11;3.25;;;1.10;;
38725;SDS011;24474;48.906;8.808;2023-08-01T12:06:37;3.78;;;1.30;;
38725;SDS011;24474;48.906;8.808;2023-08-01T12:09:09;2.50;;;0.98;;
38725;SDS011;24474;48.906;8.808;2023-08-01T12:11:38;3.00;;;1.10;;
38725;SDS011;24474;48.906;8.808;2023-08-01T12:16:39;2.53;;;1.00;;
38725;SDS011;24474;48.906;8.808;2023-08-01T12:19:18;2.42;;;1.20;;
38725;SDS011;24474;48.906;8.808;2023-08-01T12:21:45;1.77;;;0.80;;
38725;SDS011;24474;48.906;8.808;2023-08-01T12:24:11;1.88;;;0.90;;
38725;SDS011;24474;48.906;8.808;2023-08-01T12:26:36;3.03;;;0.85;;
38725;SDS011;24474;48.906;8.808;2023-08-01T12:29:02;3.50;;;1.30;;
38725;SDS011;24474;48.906;8.808;2023-08-01T12:31:28;3.53;;;1.15;;
38725;SDS011;24474;48.906;8.808;2023-08-01T12:33:55;2.35;;;0.90;;
38725;SDS011;24474;48.906;8.808;2023-08-01T12:36:22;2.00;;;0.82;;
38725;SDS011;24474;48.906;8.808;2023-08-01T12:38:48;2.80;;;1.00;;
38725;SDS011;24474;48.906;8.808;2023-08-01T12:41:14;2.33;;;1.20;;
38725;SDS011;24474;48.906;8.808;2023-08-01T12:43:39;1.73;;;1.08;;
38725;SDS011;24474;48.906;8.808;2023-08-01T12:46:05;2.67;;;1.10;;
38725;SDS011;24474;48.906;8.808;2023-08-01T12:48:31;3.15;;;1.20;;
38725;SDS011;24474;48.906;8.808;2023-08-01T12:50:58;3.53;;;1.27;;
38725;SDS011;24474;48.906;8.808;2023-08-01T12:53:26;4.93;;;1.10;;
38725;SDS011;24474;48.906;8.808;2023-08-01T12:55:52;2.45;;;1.20;;
38725;SDS011;24474;48.906;8.808;2023-08-01T12:58:22;5.03;;;1.55;;
38725;SDS011;24474;48.906;8.808;2023-08-01T13:00:49;4.45;;;1.40;;
38725;SDS011;24474;48.906;8.808;2023-08-01T13:03:14;1.95;;;1.00;;
38725;SDS011;24474;48.906;8.808;2023-08-01T13:05:42;2.22;;;1.10;;
38725;SDS011;24474;48.906;8.808;2023-08-01T13:08:09;3.08;;;1.20;;
38725;SDS011;24474;48.906;8.808;2023-08-01T13:10:37;3.50;;;1.02;;
38725;SDS011;24474;48.906;8.808;2023-08-01T13:13:05;3.78;;;1.30;;
38725;SDS011;24474;48.906;8.808;2023-08-01T13:15:32;2.45;;;1.08;;
38725;SDS011;24474;48.906;8.808;2023-08-01T13:17:59;2.20;;;1.10;;
38725;SDS011;24474;48.906;8.808;2023-08-01T13:20:27;2.95;;;1.00;;
38725;SDS011;24474;48.906;8.808;2023-08-01T13:22:55;3.90;;;1.10;;
38725;SDS011;24474;48.906;8.808;2023-08-01T13:25:22;3.15;;;1.30;;
38725;SDS011;24474;48.906;8.808;2023-08-01T13:27:48;2.83;;;0.95;;
38725;SDS011;24474;48.906;8.808;2023-08-01T13:30:15;3.15;;;1.20;;
38725;SDS011;24474;48.906;8.808;2023-08-01T13:32:43;2.97;;;1.00;;
38725;SDS011;24474;48.906;8.808;2023-08-01T13:35:14;2.17;;;1.05;;
38725;SDS011;24474;48.906;8.808;2023-08-01T13:37:42;1.48;;;1.00;;
38725;SDS011;24474;48.906;8.808;2023-08-01T13:40:08;1.98;;;1.00;;
38725;SDS011;24474;48.906;8.808;2023-08-01T13:42:38;4.32;;;1.10;;
38725;SDS011;24474;48.906;8.808;2023-08-01T13:45:05;2.08;;;0.93;;
38725;SDS011;24474;48.906;8.808;2023-08-01T13:47:32;3.15;;;1.20;;
38725;SDS011;24474;48.906;8.808;2023-08-01T13:49:58;1.65;;;0.90;;
38725;SDS011;24474;48.906;8.808;2023-08-01T13:52:25;2.55;;;1.10;;
38725;SDS011;24474;48.906;8.808;2023-08-01T13:54:52;3.38;;;1.15;;
38725;SDS011;24474;48.906;8.808;2023-08-01T13:57:19;1.67;;;0.93;;
38725;SDS011;24474;48.906;8.808;2023-08-01T13:59:46;3.00;;;1.20;;
38725;SDS011;24474;48.906;8.808;2023-08-01T14:02:11;2.92;;;1.00;;
38725;SDS011;24474;48.906;8.808;2023-08-01T14:04:37;2.53;;;1.02;;
38725;SDS011;24474;48.906;8.808;2023-08-01T14:07:03;5.65;;;1.10;;
38725;SDS011;24474;48.906;8.808;2023-08-01T14:09:29;3.30;;;1.30;;
38725;SDS011;24474;48.906;8.808;2023-08-01T14:11:58;2.67;;;1.17;;
38725;SDS011;24474;48.906;8.808;2023-08-01T14:14:26;2.58;;;0.88;;
38725;SDS011;24474;48.906;8.808;2023-08-01T14:16:53;2.55;;;1.00;;
38725;SDS011;24474;48.906;8.808;2023-08-01T14:19:21;1.85;;;1.00;;
38725;SDS011;24474;48.906;8.808;2023-08-01T14:21:47;2.60;;;0.93;;
38725;SDS011;24474;48.906;8.808;2023-08-01T14:24:15;2.35;;;1.15;;
38725;SDS011;24474;48.906;8.808;2023-08-01T14:26:42;2.45;;;1.00;;
38725;SDS011;24474;48.906;8.808;2023-08-01T14:29:08;3.40;;;1.10;;
38725;SDS011;24474;48.906;8.808;2023-08-01T14:31:34;3.30;;;1.20;;
38725;SDS011;24474;48.906;8.808;2023-08-01T14:34:01;3.72;;;1.10;;
38725;SDS011;24474;48.906;8.808;2023-08-01T14:36:28;4.25;;;1.00;;
38725;SDS011;24474;48.906;8.808;2023-08-01T14:38:54;3.65;;;0.93;;
38725;SDS011;24474;48.906;8.808;2023-08-01T14:41:23;5.38;;;1.20;;
38725;SDS011;24474;48.906;8.808;2023-08-01T14:43:49;1.95;;;1.05;;
38725;SDS011;24474;48.906;8.808;2023-08-01T14:46:16;2.88;;;1.13;;
38725;SDS011;24474;48.906;8.808;2023-08-01T14:48:43;1.75;;;0.90;;
38725;SDS011;24474;48.906;8.808;2023-08-01T14:51:11;3.65;;;1.20;;